createdAt,value
2023-03-28T00:02:13.623Z,100681.69
2023-03-28T00:04:41.444Z,100694.06
2023-03-28T00:07:08.819Z,100692.84
2023-03-28T00:09:37.663Z,100695.88
2023-03-28T00:12:06.666Z,100683.88
2023-03-28T00:14:35.696Z,100689.41
2023-03-28T00:17:03.005Z,100681.13
2023-03-28T00:19:33.183Z,100683.22
2023-03-28T00:22:00.479Z,100684.31
2023-03-28T00:24:28.060Z,100684.72
2023-03-28T00:26:55.486Z,100683.75
2023-03-28T00:29:22.838Z,100682.84
2023-03-28T00:31:50.733Z,100682.47
2023-03-28T00:34:18.128Z,100685.19
2023-03-28T00:36:45.714Z,100688.41
2023-03-28T00:39:13.567Z,100685.50
2023-03-28T00:41:42.726Z,100676.81
2023-03-28T00:44:28.708Z,100683.31
2023-03-28T00:46:58.103Z,100677.91
2023-03-28T00:49:26.264Z,100679.69
2023-03-28T00:51:57.095Z,100683.28
2023-03-28T00:54:28.233Z,100684.63
2023-03-28T00:56:57.711Z,100682.03
2023-03-28T00:59:27.121Z,100689.16
2023-03-28T01:01:58.308Z,100682.34
2023-03-28T01:04:33.408Z,100688.50
2023-03-28T01:07:00.875Z,100686.00
2023-03-28T01:09:31.424Z,100695.56
2023-03-28T01:11:59.190Z,100693.81
2023-03-28T01:14:29.201Z,100685.81
2023-03-28T01:16:58.808Z,100694.91
2023-03-28T01:19:47.067Z,100702.41
2023-03-28T01:22:23.439Z,100689.66
2023-03-28T01:24:51.052Z,100690.75
2023-03-28T01:27:27.463Z,100695.28
2023-03-28T01:30:08.017Z,100691.16
2023-03-28T01:33:15.586Z,100685.94
2023-03-28T01:36:04.725Z,100692.84
2023-03-28T01:38:38.350Z,100697.88
2023-03-28T01:41:15.434Z,100698.75
2023-03-28T01:43:58.834Z,100692.84
2023-03-28T01:46:38.345Z,100692.03
2023-03-28T01:49:19.187Z,100697.63
2023-03-28T01:51:52.817Z,100686.63
2023-03-28T01:54:20.385Z,100691.38
2023-03-28T01:57:10.532Z,100683.06
2023-03-28T01:59:51.175Z,100688.63
2023-03-28T02:02:31.533Z,100689.59
2023-03-28T02:05:04.776Z,100683.56
2023-03-28T02:07:37.997Z,100687.91
2023-03-28T02:10:11.786Z,100686.91
2023-03-28T02:12:57.954Z,100690.88
2023-03-28T02:15:49.952Z,100685.44
2023-03-28T02:18:37.438Z,100682.13
2023-03-28T02:21:52.353Z,100687.66
2023-03-28T02:24:50.545Z,100700.72
2023-03-28T02:27:52.863Z,100689.63
2023-03-28T02:30:45.709Z,100692.97
2023-03-28T02:33:32.252Z,100688.72
2023-03-28T02:36:05.792Z,100693.75
2023-03-28T02:38:40.288Z,100691.69
2023-03-28T02:41:17.891Z,100699.19
2023-03-28T02:44:02.757Z,100697.03
2023-03-28T02:46:37.533Z,100704.88
2023-03-28T02:49:11.082Z,100692.53
2023-03-28T02:51:53.495Z,100703.78
2023-03-28T02:54:36.211Z,100702.91
2023-03-28T02:57:38.763Z,100690.47
2023-03-28T03:00:13.113Z,100700.00
2023-03-28T03:02:43.419Z,100695.13
2023-03-28T03:05:11.829Z,100696.47
2023-03-28T03:07:39.370Z,100696.13
2023-03-28T03:10:08.003Z,100694.22
2023-03-28T03:12:36.368Z,100690.34
2023-03-28T03:15:05.307Z,100693.97
2023-03-28T03:17:53.009Z,100689.47
2023-03-28T03:20:33.629Z,100689.63
2023-03-28T03:23:08.635Z,100693.84
2023-03-28T03:25:36.046Z,100701.78
2023-03-28T03:28:10.937Z,100688.56
2023-03-28T03:30:39.804Z,100706.78
2023-03-28T03:33:25.036Z,100702.13
2023-03-28T03:36:04.725Z,100693.00
2023-03-28T03:38:32.602Z,100702.66
2023-03-28T03:41:01.341Z,100701.72
2023-03-28T03:43:28.890Z,100706.25
2023-03-28T03:45:56.607Z,100705.00
2023-03-28T03:48:23.966Z,100707.06
2023-03-28T03:50:57.079Z,100700.16
2023-03-28T03:53:24.629Z,100706.88
2023-03-28T03:56:13.233Z,100707.88
2023-03-28T03:58:55.832Z,100714.97
2023-03-28T04:01:30.291Z,100722.25
2023-03-28T04:04:16.696Z,100723.03
2023-03-28T04:07:16.545Z,100721.66
2023-03-28T04:09:46.736Z,100731.91
2023-03-28T04:12:14.598Z,100730.78
2023-03-28T04:14:47.412Z,100718.97
2023-03-28T04:17:50.419Z,100724.91
2023-03-28T04:20:21.375Z,100729.59
2023-03-28T04:23:09.716Z,100731.38
2023-03-28T04:25:41.777Z,100731.66
2023-03-28T04:28:17.706Z,100729.00
2023-03-28T04:31:07.518Z,100728.56
2023-03-28T04:33:53.914Z,100734.81
2023-03-28T04:36:25.946Z,100737.00
2023-03-28T04:39:03.924Z,100743.81
2023-03-28T04:41:55.862Z,100737.41
2023-03-28T04:44:29.506Z,100743.72
2023-03-28T04:47:02.288Z,100751.00
2023-03-28T04:49:30.007Z,100741.94
2023-03-28T04:51:57.217Z,100741.03
2023-03-28T04:54:24.712Z,100738.38
2023-03-28T04:57:06.454Z,100726.75
2023-03-28T04:59:41.986Z,100739.03
2023-03-28T05:02:11.655Z,100729.94
2023-03-28T05:05:00.859Z,100730.03
2023-03-28T05:07:28.338Z,100740.34
2023-03-28T05:09:56.082Z,100738.03
2023-03-28T05:12:23.681Z,100733.72
2023-03-28T05:15:07.600Z,100740.53
2023-03-28T05:17:47.529Z,100734.31
2023-03-28T05:20:28.712Z,100740.19
2023-03-28T05:22:57.664Z,100742.75
2023-03-28T05:25:25.900Z,100742.78
2023-03-28T05:27:53.257Z,100743.22
2023-03-28T05:30:20.980Z,100745.22
2023-03-28T05:32:52.474Z,100743.78
2023-03-28T05:35:20.841Z,100754.81
2023-03-28T05:37:50.088Z,100755.25
2023-03-28T05:40:24.181Z,100762.94
2023-03-28T05:42:51.539Z,100757.47
2023-03-28T05:45:21.264Z,100759.63
2023-03-28T05:48:10.668Z,100761.75
2023-03-28T05:50:38.041Z,100763.91
2023-03-28T05:53:06.913Z,100768.09
2023-03-28T05:55:35.876Z,100761.72
2023-03-28T05:58:04.349Z,100763.38
2023-03-28T06:00:37.892Z,100769.75
2023-03-28T06:03:07.901Z,100759.22
2023-03-28T06:05:40.012Z,100771.63
2023-03-28T06:08:17.583Z,100760.63
2023-03-28T06:10:45.024Z,100760.50
2023-03-28T06:13:21.997Z,100758.59
2023-03-28T06:15:49.452Z,100762.09
2023-03-28T06:18:18.635Z,100769.31
2023-03-28T06:20:49.098Z,100768.50
2023-03-28T06:23:16.507Z,100764.53
2023-03-28T06:25:44.036Z,100766.91
2023-03-28T06:28:14.035Z,100762.06
2023-03-28T06:31:01.176Z,100769.81
2023-03-28T06:33:28.672Z,100779.72
2023-03-28T06:35:56.051Z,100777.06
2023-03-28T06:38:24.418Z,100780.88
2023-03-28T06:40:53.042Z,100774.47
2023-03-28T06:43:20.437Z,100779.78
2023-03-28T06:46:03.927Z,100790.09
2023-03-28T06:48:35.685Z,100785.19
2023-03-28T06:51:22.388Z,100791.47
2023-03-28T06:53:49.827Z,100795.25
2023-03-28T06:56:22.141Z,100797.00
2023-03-28T06:58:49.465Z,100807.66
2023-03-28T07:01:20.902Z,100805.19
2023-03-28T07:03:55.501Z,100803.22
2023-03-28T07:06:28.219Z,100806.06
2023-03-28T07:08:58.972Z,100811.47
2023-03-28T07:11:37.117Z,100816.44
2023-03-28T07:14:04.760Z,100824.91
2023-03-28T07:16:32.441Z,100827.75
2023-03-28T07:18:59.976Z,100817.47
2023-03-28T07:21:32.651Z,100820.00
2023-03-28T07:24:02.682Z,100833.25
2023-03-28T07:26:45.568Z,100822.84
2023-03-28T07:29:12.887Z,100833.63
2023-03-28T07:31:40.364Z,100837.31
2023-03-28T07:34:07.825Z,100841.38
2023-03-28T07:36:35.967Z,100841.19
2023-03-28T07:39:11.540Z,100841.50
2023-03-28T07:41:39.824Z,100844.00
2023-03-28T07:44:07.113Z,100844.13
2023-03-28T07:46:37.611Z,100843.09
2023-03-28T07:49:05.550Z,100844.88
2023-03-28T07:51:34.156Z,100847.47
2023-03-28T07:54:01.918Z,100852.88
2023-03-28T07:56:29.370Z,100851.53
2023-03-28T07:59:04.471Z,100843.72
2023-03-28T08:01:32.402Z,100843.09
2023-03-28T08:04:03.811Z,100848.41
2023-03-28T08:06:52.358Z,100854.13
2023-03-28T08:09:20.667Z,100853.19
2023-03-28T08:11:52.378Z,100860.41
2023-03-28T08:14:19.852Z,100856.28
2023-03-28T08:16:47.292Z,100863.72
2023-03-28T08:19:15.043Z,100854.41
2023-03-28T08:22:05.725Z,100860.13
2023-03-28T08:24:40.998Z,100858.84
2023-03-28T08:27:12.443Z,100871.63
2023-03-28T08:29:41.784Z,100871.75
2023-03-28T08:32:09.741Z,100874.75
2023-03-28T08:34:38.130Z,100873.63
2023-03-28T08:37:12.040Z,100885.50
2023-03-28T08:39:42.829Z,100882.66
2023-03-28T08:42:21.108Z,100882.03
2023-03-28T08:45:08.983Z,100882.44
2023-03-28T08:47:42.219Z,100897.41
2023-03-28T08:50:16.112Z,100894.72
2023-03-28T08:52:44.124Z,100892.44
2023-03-28T08:55:24.378Z,100893.13
2023-03-28T08:57:54.097Z,100896.72
2023-03-28T09:00:27.623Z,100905.34
2023-03-28T09:02:55.963Z,100903.56
2023-03-28T09:05:26.702Z,100910.50
2023-03-28T09:08:01.122Z,100908.03
2023-03-28T09:10:44.759Z,100925.59
2023-03-28T09:13:22.711Z,100918.81
2023-03-28T09:16:00.054Z,100929.41
2023-03-28T09:18:39.549Z,100933.41
2023-03-28T09:21:10.202Z,100937.28
2023-03-28T09:23:52.956Z,100944.56
2023-03-28T09:26:24.322Z,100944.88
2023-03-28T09:28:57.304Z,100941.19
2023-03-28T09:31:28.154Z,100944.44
2023-03-28T09:34:00.377Z,100939.84
2023-03-28T09:36:49.027Z,100941.00
2023-03-28T09:39:28.734Z,100936.56
2023-03-28T09:42:19.439Z,100950.75
2023-03-28T09:44:58.119Z,100953.84
2023-03-28T09:47:49.053Z,100958.06
2023-03-28T09:50:19.973Z,100967.63
2023-03-28T09:52:53.794Z,100971.75
2023-03-28T09:55:22.396Z,100967.75
2023-03-28T09:58:11.149Z,100981.06
2023-03-28T10:00:56.955Z,100981.84
2023-03-28T10:04:08.633Z,100989.06
2023-03-28T10:06:57.428Z,100994.47
2023-03-28T10:09:24.843Z,100986.97
2023-03-28T10:12:08.451Z,100992.00
2023-03-28T10:14:42.835Z,100996.81
2023-03-28T10:17:27.568Z,100996.81
2023-03-28T10:20:03.479Z,101003.78
2023-03-28T10:22:37.705Z,100999.44
2023-03-28T10:25:06.003Z,101010.56
2023-03-28T10:27:35.105Z,101016.91
2023-03-28T10:30:17.584Z,101018.03
2023-03-28T10:32:45.399Z,101027.34
2023-03-28T10:35:26.593Z,101023.03
2023-03-28T10:38:04.916Z,101022.47
2023-03-28T10:40:52.092Z,101024.28
2023-03-28T10:43:34.989Z,101027.13
2023-03-28T10:46:32.997Z,101033.44
2023-03-28T10:49:18.030Z,101041.75
2023-03-28T10:51:55.037Z,101037.34
2023-03-28T10:54:31.655Z,101043.09
2023-03-28T10:56:59.512Z,101045.94
2023-03-28T10:59:31.038Z,101055.53
2023-03-28T11:02:12.302Z,101067.97
2023-03-28T11:04:39.734Z,101066.97
2023-03-28T11:07:18.621Z,101077.91
2023-03-28T11:10:04.309Z,101070.22
2023-03-28T11:12:59.275Z,101075.72
2023-03-28T11:15:32.838Z,101078.59
2023-03-28T11:18:30.069Z,101082.91
2023-03-28T11:21:17.910Z,101091.53
2023-03-28T11:23:50.422Z,101092.97
2023-03-28T11:27:15.577Z,101088.53
2023-03-28T11:30:11.725Z,101099.09
2023-03-28T11:33:21.601Z,101094.81
2023-03-28T11:36:02.351Z,101108.09
2023-03-28T11:38:55.984Z,101105.75
2023-03-28T11:41:27.159Z,101109.09
2023-03-28T11:44:03.821Z,101115.41
2023-03-28T11:46:38.275Z,101106.59
2023-03-28T11:49:11.929Z,101115.09
2023-03-28T11:51:45.747Z,101111.38
2023-03-28T11:54:19.174Z,101112.63
2023-03-28T11:56:49.676Z,101129.50
2023-03-28T11:59:43.977Z,101137.19
2023-03-28T12:02:14.548Z,101126.25
2023-03-28T12:04:46.836Z,101141.59
2023-03-28T12:07:22.604Z,101154.19
2023-03-28T12:10:09.539Z,101156.56
2023-03-28T12:12:43.735Z,101145.75
2023-03-28T12:15:17.230Z,101158.22
2023-03-28T12:18:04.542Z,101156.81
2023-03-28T12:20:38.791Z,101167.00
2023-03-28T12:23:23.968Z,101149.97
2023-03-28T12:26:50.436Z,101162.81
2023-03-28T12:29:30.986Z,101152.81
2023-03-28T12:32:07.465Z,101148.19
2023-03-28T12:35:05.318Z,101153.84
2023-03-28T12:38:01.780Z,101161.34
2023-03-28T12:40:47.929Z,101157.88
2023-03-28T12:43:17.142Z,101165.63
2023-03-28T12:45:48.004Z,101166.34
2023-03-28T12:48:36.660Z,101170.19
2023-03-28T12:51:25.516Z,101165.38
2023-03-28T12:54:01.647Z,101172.03
2023-03-28T12:56:28.985Z,101178.28
2023-03-28T12:58:56.365Z,101178.19
2023-03-28T13:01:44.625Z,101177.81
2023-03-28T13:04:26.293Z,101180.03
2023-03-28T13:07:21.431Z,101188.19
2023-03-28T13:09:49.596Z,101189.66
2023-03-28T13:12:35.428Z,101200.50
2023-03-28T13:15:22.700Z,101197.16
2023-03-28T13:18:08.876Z,101211.06
2023-03-28T13:20:43.688Z,101200.81
2023-03-28T13:23:13.899Z,101202.16
2023-03-28T13:25:42.953Z,101209.88
2023-03-28T13:28:13.033Z,101206.19
2023-03-28T13:30:41.306Z,101214.31
2023-03-28T13:33:27.590Z,101210.47
2023-03-28T13:36:12.144Z,101221.31
2023-03-28T13:38:50.995Z,101208.97
2023-03-28T13:41:29.912Z,101212.66
2023-03-28T13:43:59.064Z,101216.25
2023-03-28T13:46:41.415Z,101232.69
2023-03-28T13:49:11.457Z,101225.59
2023-03-28T13:51:57.450Z,101223.09
2023-03-28T13:54:25.401Z,101227.38
2023-03-28T13:56:53.164Z,101227.53
2023-03-28T13:59:25.702Z,101239.00
2023-03-28T14:01:57.585Z,101236.75
2023-03-28T14:04:27.001Z,101237.50
2023-03-28T14:06:55.277Z,101235.94
2023-03-28T14:09:32.793Z,101240.44
2023-03-28T14:12:03.640Z,101240.38
2023-03-28T14:14:34.084Z,101235.94
2023-03-28T14:17:06.024Z,101228.38
2023-03-28T14:19:41.810Z,101243.44
2023-03-28T14:22:17.117Z,101247.66
2023-03-28T14:24:46.987Z,101252.06
2023-03-28T14:27:15.670Z,101257.41
2023-03-28T14:29:52.773Z,101260.81
2023-03-28T14:32:24.655Z,101257.66
2023-03-28T14:34:53.981Z,101260.66
2023-03-28T14:37:25.781Z,101256.44
2023-03-28T14:39:54.439Z,101257.97
2023-03-28T14:42:23.963Z,101263.59
2023-03-28T14:44:52.352Z,101264.91
2023-03-28T14:47:28.194Z,101271.28
2023-03-28T14:49:55.854Z,101273.38
2023-03-28T14:52:30.403Z,101273.25
2023-03-28T14:54:58.711Z,101272.03
2023-03-28T14:57:26.672Z,101279.13
2023-03-28T14:59:55.344Z,101280.16
2023-03-28T15:02:31.846Z,101279.94
2023-03-28T15:05:04.380Z,101283.09
2023-03-28T15:07:33.223Z,101275.00
2023-03-28T15:10:23.583Z,101284.66
2023-03-28T15:13:02.912Z,101265.63
2023-03-28T15:15:37.789Z,101275.44
2023-03-28T15:18:08.966Z,101261.69
2023-03-28T15:20:38.214Z,101279.88
2023-03-28T15:23:07.297Z,101281.03
2023-03-28T15:25:35.631Z,101286.56
2023-03-28T15:28:05.248Z,101297.59
2023-03-28T15:30:34.571Z,101312.63
2023-03-28T15:33:03.508Z,101325.72
2023-03-28T15:35:30.798Z,101332.63
2023-03-28T15:38:07.378Z,101328.72
2023-03-28T15:40:39.165Z,101328.75
2023-03-28T15:43:07.242Z,101330.22
2023-03-28T15:45:44.263Z,101329.78
2023-03-28T15:48:16.697Z,101341.50
2023-03-28T15:50:48.576Z,101347.66
2023-03-28T15:53:16.575Z,101342.47
2023-03-28T15:55:44.834Z,101334.38
2023-03-28T15:58:13.508Z,101344.94
2023-03-28T16:00:49.015Z,101356.63
2023-03-28T16:03:25.852Z,101359.59
2023-03-28T16:06:01.865Z,101359.22
2023-03-28T16:08:39.001Z,101361.34
2023-03-28T16:11:07.066Z,101374.25
2023-03-28T16:13:37.170Z,101376.22
2023-03-28T16:16:05.667Z,101373.06
2023-03-28T16:18:44.701Z,101375.84
2023-03-28T16:21:12.388Z,101373.97
2023-03-28T16:23:39.705Z,101372.00
2023-03-28T16:26:07.382Z,101387.06
2023-03-28T16:28:35.564Z,101384.69
2023-03-28T16:31:03.187Z,101383.31
2023-03-28T16:33:30.878Z,101391.72
2023-03-28T16:35:58.754Z,101390.00
2023-03-28T16:38:26.398Z,101399.41
2023-03-28T16:40:53.740Z,101404.84
2023-03-28T16:43:21.488Z,101403.78
2023-03-28T16:45:49.718Z,101410.94
2023-03-28T16:48:17.496Z,101418.84
2023-03-28T16:50:54.596Z,101413.06
2023-03-28T16:53:22.332Z,101424.53
2023-03-28T16:55:50.772Z,101419.69
2023-03-28T16:58:18.131Z,101422.25
2023-03-28T17:00:47.389Z,101433.13
2023-03-28T17:03:14.829Z,101417.66
2023-03-28T17:05:42.139Z,101428.44
2023-03-28T17:08:09.641Z,101428.88
2023-03-28T17:10:41.530Z,101433.72
2023-03-28T17:13:09.329Z,101427.59
2023-03-28T17:15:36.609Z,101437.56
2023-03-28T17:18:05.763Z,101434.50
2023-03-28T17:20:33.582Z,101442.19
2023-03-28T17:23:00.875Z,101447.97
2023-03-28T17:25:28.381Z,101449.88
2023-03-28T17:27:55.798Z,101448.81
2023-03-28T17:30:23.256Z,101450.78
2023-03-28T17:32:51.581Z,101446.34
2023-03-28T17:35:19.031Z,101470.25
2023-03-28T17:37:46.313Z,101473.47
2023-03-28T17:40:14.664Z,101461.03
2023-03-28T17:42:41.857Z,101460.69
2023-03-28T17:45:10.745Z,101465.63
2023-03-28T17:47:39.574Z,101471.22
2023-03-28T17:50:07.182Z,101466.78
2023-03-28T17:52:34.609Z,101462.53
2023-03-28T17:55:02.084Z,101478.38
2023-03-28T17:57:29.290Z,101471.75
2023-03-28T17:59:56.958Z,101468.31
2023-03-28T18:02:25.112Z,101479.69
2023-03-28T18:05:07.059Z,101466.00
2023-03-28T18:07:35.837Z,101470.47
2023-03-28T18:10:08.749Z,101476.44
2023-03-28T18:12:36.965Z,101483.22
2023-03-28T18:15:04.592Z,101482.50
2023-03-28T18:17:31.847Z,101485.69
2023-03-28T18:19:59.638Z,101482.41
2023-03-28T18:22:27.564Z,101481.88
2023-03-28T18:24:55.044Z,101499.38
2023-03-28T18:27:22.386Z,101468.72
2023-03-28T18:29:49.606Z,101500.66
2023-03-28T18:32:16.951Z,101508.03
2023-03-28T18:34:44.293Z,101518.06
2023-03-28T18:37:12.453Z,101517.66
2023-03-28T18:39:41.789Z,101523.59
2023-03-28T18:42:09.322Z,101521.19
2023-03-28T18:44:37.188Z,101513.16
2023-03-28T18:47:05.298Z,101494.28
2023-03-28T18:49:32.957Z,101511.34
2023-03-28T18:52:06.359Z,101512.44
2023-03-28T18:54:34.312Z,101503.72
2023-03-28T18:57:01.698Z,101503.97
2023-03-28T18:59:30.046Z,101490.25
2023-03-28T19:01:58.610Z,101502.28
2023-03-28T19:04:26.579Z,101515.78
2023-03-28T19:06:53.928Z,101515.59
2023-03-28T19:09:21.387Z,101535.41
2023-03-28T19:11:52.549Z,101522.28
2023-03-28T19:14:19.827Z,101537.22
2023-03-28T19:16:47.582Z,101523.16
2023-03-28T19:19:15.412Z,101525.59
2023-03-28T19:21:42.708Z,101524.81
2023-03-28T19:24:10.082Z,101516.34
2023-03-28T19:26:37.645Z,101519.31
2023-03-28T19:29:05.032Z,101535.56
2023-03-28T19:31:32.572Z,101533.22
2023-03-28T19:33:59.865Z,101539.97
2023-03-28T19:36:29.729Z,101534.78
2023-03-28T19:39:00.107Z,101519.72
2023-03-28T19:41:29.660Z,101513.69
2023-03-28T19:44:00.452Z,101529.03
2023-03-28T19:46:36.358Z,101530.72
2023-03-28T19:49:08.530Z,101533.50
2023-03-28T19:51:39.207Z,101536.44
2023-03-28T19:54:09.646Z,101553.03
2023-03-28T19:56:39.900Z,101548.22
2023-03-28T19:59:10.382Z,101544.31
2023-03-28T20:01:40.463Z,101535.88
2023-03-28T20:04:11.893Z,101531.63
2023-03-28T20:06:41.583Z,101524.03
2023-03-28T20:09:15.295Z,101536.56
2023-03-28T20:11:45.118Z,101529.00
2023-03-28T20:14:19.285Z,101522.84
2023-03-28T20:16:49.984Z,101525.91
2023-03-28T20:19:19.232Z,101539.41
2023-03-28T20:21:48.915Z,101536.38
2023-03-28T20:24:20.569Z,101547.47
2023-03-28T20:26:48.694Z,101550.16
2023-03-28T20:29:16.387Z,101547.16
2023-03-28T20:31:46.552Z,101543.91
2023-03-28T20:34:16.706Z,101538.28
2023-03-28T20:36:48.107Z,101543.63
2023-03-28T20:39:18.243Z,101539.53
2023-03-28T20:41:53.348Z,101547.06
2023-03-28T20:47:14.195Z,101544.66
2023-03-28T20:49:47.365Z,101550.06
2023-03-28T20:52:17.829Z,101547.13
2023-03-28T20:58:02.438Z,101546.28
2023-03-28T21:00:35.970Z,101554.41
2023-03-28T21:03:03.838Z,101553.75
2023-03-28T21:05:50.611Z,101557.19
2023-03-28T21:08:36.954Z,101558.22
2023-03-28T21:11:04.495Z,101558.44
2023-03-28T21:13:31.744Z,101551.84
2023-03-28T21:15:59.145Z,101550.66
2023-03-28T21:18:45.044Z,101552.22
2023-03-28T21:21:13.781Z,101550.28
2023-03-28T21:23:41.275Z,101544.06
2023-03-28T21:26:27.038Z,101550.47
2023-03-28T21:28:54.721Z,101558.09
2023-03-28T21:31:24.927Z,101575.25
2023-03-28T21:33:53.581Z,101572.31
2023-03-28T21:36:21.408Z,101572.31
2023-03-28T21:38:48.928Z,101584.75
2023-03-28T21:41:16.841Z,101578.25
2023-03-28T21:43:44.461Z,101574.38
2023-03-28T21:46:12.842Z,101576.75
2023-03-28T21:48:40.238Z,101582.13
2023-03-28T21:51:07.914Z,101581.06
2023-03-28T21:53:36.666Z,101577.59
2023-03-28T21:56:04.911Z,101572.41
2023-03-28T21:58:33.425Z,101582.25
2023-03-28T22:01:01.541Z,101570.88
2023-03-28T22:03:29.412Z,101564.97
2023-03-28T22:05:56.701Z,101567.94
2023-03-28T22:08:24.245Z,101569.03
2023-03-28T22:10:53.125Z,101582.19
2023-03-28T22:13:21.356Z,101572.50
2023-03-28T22:15:49.787Z,101580.41
2023-03-28T22:18:17.168Z,101576.66
2023-03-28T22:20:44.345Z,101568.97
2023-03-28T22:23:11.879Z,101565.47
2023-03-28T22:25:39.511Z,101569.34
2023-03-28T22:28:25.214Z,101571.72
2023-03-28T22:30:56.969Z,101569.75
2023-03-28T22:33:25.574Z,101572.50
2023-03-28T22:35:53.356Z,101571.88
2023-03-28T22:38:20.910Z,101576.16
2023-03-28T22:41:07.819Z,101571.47
2023-03-28T22:43:35.619Z,101578.91
2023-03-28T22:46:03.183Z,101579.63
2023-03-28T22:48:31.478Z,101578.28
2023-03-28T22:51:01.565Z,101584.41
2023-03-28T22:53:32.158Z,101580.97
2023-03-28T22:55:59.526Z,101587.72
2023-03-28T22:58:27.392Z,101585.44
2023-03-28T23:00:55.140Z,101585.19
2023-03-28T23:03:22.357Z,101589.44
2023-03-28T23:05:51.759Z,101585.00
2023-03-28T23:08:19.383Z,101586.91
2023-03-28T23:10:47.055Z,101582.78
2023-03-28T23:13:14.518Z,101594.44
2023-03-28T23:15:41.992Z,101582.34
2023-03-28T23:18:09.383Z,101583.09
2023-03-28T23:20:38.339Z,101594.25
2023-03-28T23:23:06.852Z,101605.38
2023-03-28T23:25:34.482Z,101586.19
2023-03-28T23:28:02.028Z,101587.31
2023-03-28T23:30:29.244Z,101589.88
2023-03-28T23:32:56.933Z,101597.81
2023-03-28T23:35:24.259Z,101597.69
2023-03-28T23:37:53.265Z,101597.50
2023-03-28T23:40:20.805Z,101595.22
2023-03-28T23:42:48.123Z,101599.28
2023-03-28T23:45:15.927Z,101590.56
2023-03-28T23:47:43.652Z,101596.41
2023-03-28T23:50:11.377Z,101589.03
2023-03-28T23:52:38.653Z,101593.72
2023-03-28T23:55:07.965Z,101607.41
2023-03-28T23:57:35.365Z,101597.16
